メインページ
METAR-TAF:

METAR-TAF

空港 :

コロール, バベルダオブ島, パラオ

ロマン・トメトゥチェル国際空港

緯度: 07-22N, 経度: 134-32E, 海抜: 54m

現時点の気象観測

当レポートは43分前の09:50(UTC)に作成
東/北東の風 10kt、最大15ktの突風を伴う
気温 27°C
湿度 89%
気圧 1008 hPa
視程: 22.5km
高度1600ftの雲は散在している, 塔状積雲.
高度12000ftの千切れ雲あり
高度30000ftの曇り

METAR: PTRO 230950Z 06010G15KT 14SM SCT016TCU BKN120 OVC300 27/25 A2978 RMK TCU ALQDS

時間: 19:33 (10:33 UTC)

予報

当レポートは2時間49分前の07:44(UTC)に作成
予報は23日の 08時(UTC)から 24日の 06時(UTC)まで有効
東/北東の風 13kt、最大23ktの突風を伴う
視程: 10km
高度1500ftの千切れ雲あり
高度12000ftの千切れ雲あり
近辺でにわか雨
23日の 1500時(UTC)から
の風 10kt
視程: 10km
高度1600ftの雲は散在している
高度13000ftの千切れ雲あり
近辺でにわか雨

TAF: PTRO 230744Z 2308/2406 07013G23KT P6SM VCSH BKN015 BKN120 FM231500 10010KT P6SM VCSH SCT016 BKN130

4,000以上の空港の気象観測と天気予報(METAR報とTAF報)

利用可能な観測所は地図上に黄色い丸と赤い丸で示す。

丸の上にカーソルを重ねると観測所名を参照できる。

次にクリックすると気象観測と天気予報を参照できる。

マップの切り替え:黒色「×」印の緑ボタンをクリックして拡大、「-」印の緑ボタンをクリックして縮小、緑色の三角印をクリックして隣りの地図に切り替え


METAR-TAF: